Time;durP1;ratioP1;P1;durP2;ratioP2;P2;SDS_P1;SDS_P2;PMS_P1;PMS_P2;Temp;Humidity;BMP_temperature;BMP_pressure;BME280_temperature;BME280_humidity;BME280_pressure;Samples;Min_cycle;Max_cycle;Signal;HPM_P1;HPM_P2
2024/02/08 00:01:53;;;;;;;;;;;;;;;7.03;100.00;98502.91;109339;1251;66930;-64
2024/02/08 00:04:21;;;;;;;;;;;;;;;6.98;100.00;98504.75;109453;1251;71470;-65
2024/02/08 00:06:49;;;;;;;;;;;;;;;6.91;100.00;98509.83;109376;1251;60390;-64
2024/02/08 00:09:16;;;;;;;;;;;;;;;6.85;100.00;98508.16;109344;1251;60660;-63
2024/02/08 00:11:44;;;;;;;;;;;;;;;6.80;100.00;98509.52;109362;1253;73240;-64
2024/02/08 00:14:11;;;;;;;;;;;;;;;6.75;100.00;98515.53;109367;1251;65661;-64
2024/02/08 00:16:39;;;;;;;;;;;;;;;6.70;100.00;98508.98;109398;1251;71468;-63
2024/02/08 00:19:07;;;;;;;;;;;;;;;6.66;100.00;98503.91;109405;1251;64749;-64
2024/02/08 00:21:35;;;;;;;;;;;;;;;6.63;100.00;98506.27;109403;1251;58992;-64
2024/02/08 00:24:03;;;;;;;;;;;;;;;6.59;100.00;98510.52;109423;1251;73859;-64
2024/02/08 00:26:31;;;;;;;;;;;;;;;6.56;100.00;98504.84;109417;1251;66102;-64
2024/02/08 00:29:00;;;;;;;;;;;;;;;6.54;100.00;98505.71;109385;1253;72411;-63
2024/02/08 00:31:27;;;;;;;;;;;;;;;6.50;100.00;98505.31;109306;1251;63363;-63
2024/02/08 00:33:56;;;;;;;;;;;;;;;6.48;100.00;98505.80;109398;1251;59988;-64
2024/02/08 00:36:24;;;;;;;;;;;;;;;6.47;100.00;98509.49;109218;1252;73573;-64
2024/02/08 00:38:51;;;;;;;;;;;;;;;6.49;100.00;98509.27;109236;1252;66064;-64
2024/02/08 00:41:24;;;;;;;;;;;;;;;6.50;100.00;98505.79;109361;1251;70471;-64
2024/02/08 00:43:51;;;;;;;;;;;;;;;6.52;100.00;98507.71;109342;1252;61768;-64
2024/02/08 00:46:19;;;;;;;;;;;;;;;6.54;100.00;98507.70;109265;1253;59008;-65
2024/02/08 00:48:47;;;;;;;;;;;;;;;6.59;100.00;98512.28;109279;1254;73492;-64
2024/02/08 00:51:14;;;;;;;;;;;;;;;6.64;100.00;98513.80;109322;1252;66979;-64
2024/02/08 00:53:43;;;;;;;;;;;;;;;6.64;100.00;98523.20;109344;1252;71732;-64
2024/02/08 00:56:13;;;;;;;;;;;;;;;6.63;100.00;98529.85;109308;1253;61742;-64
2024/02/08 00:58:41;;;;;;;;;;;;;;;6.61;100.00;98528.10;109248;1253;58981;-65
2024/02/08 01:01:09;;;;;;;;;;;;;;;6.58;100.00;98532.11;109340;1251;74718;-63
2024/02/08 01:03:36;;;;;;;;;;;;;;;6.55;100.00;98528.09;109336;1253;66746;-63
2024/02/08 01:06:04;;;;;;;;;;;;;;;6.55;100.00;98533.27;109362;1252;71464;-63
2024/02/08 01:08:33;;;;;;;;;;;;;;;6.55;100.00;98534.83;109305;1254;60376;-64
2024/02/08 01:11:00;;;;;;;;;;;;;;;6.55;100.00;98534.02;109298;1251;59792;-64
2024/02/08 01:13:31;;;;;;;;;;;;;;;6.53;100.00;98532.55;109419;1251;73506;-64
2024/02/08 01:15:59;;;;;;;;;;;;;;;6.48;100.00;98536.98;109388;1251;65672;-64
2024/02/08 01:18:26;;;;;;;;;;;;;;;6.43;100.00;98534.34;109393;1251;71915;-64
2024/02/08 01:20:54;;;;;;;;;;;;;;;6.40;100.00;98534.42;109265;1251;60743;-65
2024/02/08 01:23:22;;;;;;;;;;;;;;;6.39;100.00;98539.39;109417;1251;59142;-64
2024/02/08 01:25:50;;;;;;;;;;;;;;;6.36;100.00;98542.38;109433;1251;73382;-63
2024/02/08 01:28:18;;;;;;;;;;;;;;;6.33;100.00;98547.55;109372;1251;65511;-63
2024/02/08 01:30:45;;;;;;;;;;;;;;;6.31;100.00;98551.77;109442;1251;71607;-63
2024/02/08 01:33:13;;;;;;;;;;;;;;;6.30;100.00;98552.09;109296;1251;60587;-64
2024/02/08 01:35:41;;;;;;;;;;;;;;;6.27;100.00;98552.64;109434;1251;59890;-63
2024/02/08 01:38:08;;;;;;;;;;;;;;;6.26;100.00;98553.80;109409;1251;74722;-63
2024/02/08 01:40:36;;;;;;;;;;;;;;;6.26;100.00;98556.02;109378;1251;65764;-63
2024/02/08 01:43:06;;;;;;;;;;;;;;;6.22;100.00;98568.64;109356;1251;71390;-63
2024/02/08 01:45:34;;;;;;;;;;;;;;;6.22;100.00;98570.59;109381;1251;60483;-64
2024/02/08 01:48:10;;;;;;;;;;;;;;;6.22;100.00;98573.80;109396;1251;59879;-63
2024/02/08 01:50:39;;;;;;;;;;;;;;;6.22;100.00;98571.43;109349;1251;74737;-63
2024/02/08 01:53:08;;;;;;;;;;;;;;;6.21;100.00;98569.98;109265;1251;65469;-64
2024/02/08 01:55:36;;;;;;;;;;;;;;;6.21;100.00;98577.81;109431;1251;71763;-63
2024/02/08 01:58:04;;;;;;;;;;;;;;;6.21;100.00;98581.73;109426;1250;59734;-63
2024/02/08 02:00:36;;;;;;;;;;;;;;;6.21;100.00;98583.31;109416;1251;58986;-63
2024/02/08 02:03:12;;;;;;;;;;;;;;;6.20;100.00;98585.77;109287;1250;74789;-63
2024/02/08 02:05:42;;;;;;;;;;;;;;;6.21;100.00;98585.98;109451;1250;65807;-63
2024/02/08 02:08:10;;;;;;;;;;;;;;;6.22;100.00;98587.50;109457;1251;74091;-62
2024/02/08 02:10:38;;;;;;;;;;;;;;;6.25;100.00;98588.66;109408;1251;61787;-64
2024/02/08 02:13:09;;;;;;;;;;;;;;;6.24;100.00;98591.95;109404;1251;58921;-63
2024/02/08 02:15:37;;;;;;;;;;;;;;;6.24;100.00;98587.42;109392;1250;74931;-63
2024/02/08 02:18:07;;;;;;;;;;;;;;;6.23;100.00;98592.64;109380;1251;65835;-63
2024/02/08 02:20:36;;;;;;;;;;;;;;;6.23;100.00;98594.75;109481;1251;71442;-64
2024/02/08 02:23:03;;;;;;;;;;;;;;;6.24;100.00;98599.52;109407;1250;61918;-63
2024/02/08 02:25:34;;;;;;;;;;;;;;;6.24;100.00;98596.29;109466;1250;58892;-63
2024/02/08 02:28:03;;;;;;;;;;;;;;;6.27;100.00;98603.19;109313;1250;74652;-63
2024/02/08 02:30:34;;;;;;;;;;;;;;;6.30;100.00;98610.30;109447;1251;65505;-63
2024/02/08 02:33:03;;;;;;;;;;;;;;;6.32;100.00;98615.95;109411;1252;72952;-63
2024/02/08 02:35:32;;;;;;;;;;;;;;;6.36;100.00;98616.59;109341;1253;62671;-63
2024/02/08 02:38:02;;;;;;;;;;;;;;;6.39;100.00;98618.11;109361;1252;59824;-63
2024/02/08 02:40:33;;;;;;;;;;;;;;;6.42;100.00;98618.91;109319;1252;74707;-65
2024/02/08 02:43:09;;;;;;;;;;;;;;;6.44;100.00;98623.91;109411;1251;66235;-63
2024/02/08 02:45:37;;;;;;;;;;;;;;;6.48;100.00;98630.40;109382;1251;72759;-63
2024/02/08 02:48:05;;;;;;;;;;;;;;;6.52;100.00;98629.00;109357;1251;60430;-62
2024/02/08 02:50:33;;;;;;;;;;;;;;;6.55;100.00;98626.52;109330;1251;59069;-63
2024/02/08 02:53:00;;;;;;;;;;;;;;;6.58;100.00;98626.11;109401;1252;74773;-62
2024/02/08 02:55:28;;;;;;;;;;;;;;;6.60;100.00;98638.63;109387;1252;66342;-62
2024/02/08 02:57:57;;;;;;;;;;;;;;;6.64;100.00;98644.20;109341;1251;72870;-63
2024/02/08 03:00:25;;;;;;;;;;;;;;;6.67;100.00;98641.26;109325;1252;60854;-66
2024/02/08 03:02:53;;;;;;;;;;;;;;;6.69;100.00;98646.56;109362;1251;59892;-62
2024/02/08 03:05:23;;;;;;;;;;;;;;;6.71;100.00;98647.16;109382;1252;73469;-62
2024/02/08 03:07:51;;;;;;;;;;;;;;;6.73;100.00;98649.63;109400;1252;66836;-62
2024/02/08 03:10:21;;;;;;;;;;;;;;;6.71;100.00;98648.44;109347;1251;71606;-62
2024/02/08 03:12:49;;;;;;;;;;;;;;;6.71;100.00;98644.30;109287;1252;61116;-62
2024/02/08 03:15:17;;;;;;;;;;;;;;;6.71;100.00;98639.60;109356;1253;59853;-63
2024/02/08 03:17:46;;;;;;;;;;;;;;;6.71;100.00;98648.44;109347;1251;72564;-62
2024/02/08 03:20:29;;;;;;;;;;;;;;;6.72;100.00;98655.81;109374;1252;66881;-62
2024/02/08 03:22:57;;;;;;;;;;;;;;;6.72;100.00;98660.95;109301;1253;72358;-62
2024/02/08 03:25:25;;;;;;;;;;;;;;;6.73;100.00;98661.86;109325;1252;60780;-62
2024/02/08 03:27:53;;;;;;;;;;;;;;;6.73;100.00;98657.99;109341;1252;58868;-61
2024/02/08 03:30:22;;;;;;;;;;;;;;;6.74;100.00;98662.42;109332;1252;73858;-61
2024/02/08 03:32:50;;;;;;;;;;;;;;;6.74;100.00;98657.71;109286;1252;65671;-62
2024/02/08 03:35:25;;;;;;;;;;;;;;;6.75;100.00;98662.52;109316;1252;72763;-62
2024/02/08 03:37:54;;;;;;;;;;;;;;;6.75;100.00;98668.49;109322;1253;60987;-62
2024/02/08 03:40:25;;;;;;;;;;;;;;;6.74;100.00;98675.21;109338;1252;59798;-61
2024/02/08 03:42:53;;;;;;;;;;;;;;;6.72;100.00;98671.67;109275;1253;75052;-61
2024/02/08 03:45:27;;;;;;;;;;;;;;;6.71;100.00;98677.72;109330;1252;66068;-62
2024/02/08 03:48:00;;;;;;;;;;;;;;;6.70;100.00;98683.77;109369;1253;72735;-62
2024/02/08 03:50:33;;;;;;;;;;;;;;;6.69;100.00;98684.12;109314;1252;61803;-65
2024/02/08 03:53:02;;;;;;;;;;;;;;;6.69;100.00;98689.34;109340;1253;58866;-62
2024/02/08 03:55:35;;;;;;;;;;;;;;;6.66;100.00;98697.62;109323;1252;74712;-62
2024/02/08 03:58:06;;;;;;;;;;;;;;;6.65;100.00;98697.23;109369;1252;67028;-62
2024/02/08 04:00:35;;;;;;;;;;;;;;;6.64;100.00;98692.92;109312;1252;72725;-62
2024/02/08 04:03:06;;;;;;;;;;;;;;;6.63;100.00;98699.38;109315;1253;60459;-61
2024/02/08 04:05:37;;;;;;;;;;;;;;;6.61;100.00;98701.92;109441;1252;59371;-61
2024/02/08 04:08:22;;;;;;;;;;;;;;;6.60;100.00;98697.70;109329;1252;74699;-61
2024/02/08 04:55:33;;;;;;;;;;;;;;;6.49;100.00;98789.86;109295;1253;72735;-61
2024/02/08 04:58:00;;;;;;;;;;;;;;;6.49;100.00;98803.55;109306;1253;62204;-60
2024/02/08 05:00:48;;;;;;;;;;;;;;;6.47;100.00;98813.09;109320;1252;59897;-61
2024/02/08 05:03:17;;;;;;;;;;;;;;;6.46;100.00;98820.62;109322;1252;73332;-60
2024/02/08 05:05:46;;;;;;;;;;;;;;;6.45;100.00;98823.09;109446;1252;66954;-64
2024/02/08 05:08:15;;;;;;;;;;;;;;;6.45;100.00;98826.27;109290;1252;72705;-60
2024/02/08 05:10:46;;;;;;;;;;;;;;;6.43;100.00;98830.43;109286;1253;60451;-60
2024/02/08 05:13:14;;;;;;;;;;;;;;;6.42;100.00;98829.55;109411;1252;58992;-60
2024/02/08 05:15:42;;;;;;;;;;;;;;;6.40;100.00;98821.42;109316;1252;74722;-61
2024/02/08 05:18:11;;;;;;;;;;;;;;;6.37;100.00;98823.52;109422;1254;66919;-61
2024/02/08 05:20:40;;;;;;;;;;;;;;;6.33;100.00;98823.02;109328;1252;72839;-60
2024/02/08 05:23:07;;;;;;;;;;;;;;;6.29;100.00;98815.98;109357;1253;60946;-60
2024/02/08 05:25:35;;;;;;;;;;;;;;;6.23;100.00;98827.20;109398;1251;59455;-60
2024/02/08 05:28:03;;;;;;;;;;;;;;;6.19;100.00;98829.38;109328;1251;75119;-61
2024/02/08 05:30:34;;;;;;;;;;;;;;;6.14;100.00;98822.66;109373;1251;67082;-60
2024/02/08 05:33:02;;;;;;;;;;;;;;;6.10;100.00;98827.45;109370;1252;72762;-59
2024/02/08 05:35:32;;;;;;;;;;;;;;;6.05;100.00;98835.26;109360;1251;58939;-60
2024/02/08 05:38:01;;;;;;;;;;;;;;;6.01;100.00;98835.52;109354;1252;59921;-59
2024/02/08 05:40:31;;;;;;;;;;;;;;;5.99;100.00;98833.83;109387;1252;74750;-60
2024/02/08 05:42:58;;;;;;;;;;;;;;;5.97;100.00;98838.34;109405;1252;65785;-61
2024/02/08 05:45:30;;;;;;;;;;;;;;;5.97;100.00;98834.65;109377;1253;72371;-60
2024/02/08 05:48:05;;;;;;;;;;;;;;;5.95;100.00;98829.14;109380;1253;59807;-59
2024/02/08 05:50:34;;;;;;;;;;;;;;;5.94;100.00;98827.77;109398;1252;59845;-60
2024/02/08 05:53:06;;;;;;;;;;;;;;;5.92;100.00;98823.27;109367;1252;74723;-60
2024/02/08 05:55:34;;;;;;;;;;;;;;;5.90;100.00;98824.70;109302;1253;67031;-65
2024/02/08 05:58:06;;;;;;;;;;;;;;;5.88;100.00;98827.48;109356;1251;72715;-59
2024/02/08 06:00:45;;;;;;;;;;;;;;;5.86;100.00;98845.27;109401;1253;59468;-61
2024/02/08 06:03:25;;;;;;;;;;;;;;;5.83;100.00;98849.33;109483;1252;59039;-59
2024/02/08 06:06:06;;;;;;;;;;;;;;;5.81;100.00;98860.11;109447;1251;74686;-60
2024/02/08 06:08:39;;;;;;;;;;;;;;;5.82;100.00;98862.63;109444;1251;67205;-59
2024/02/08 06:11:19;;;;;;;;;;;;;;;5.82;100.00;98860.91;109369;1251;71434;-59
2024/02/08 06:13:55;;;;;;;;;;;;;;;5.83;100.00;98860.60;109403;1251;59249;-59
2024/02/08 06:16:45;;;;;;;;;;;;;;;5.85;100.00;98859.98;109459;1251;59946;-59
2024/02/08 06:19:17;;;;;;;;;;;;;;;5.89;100.00;98851.61;109477;1251;73796;-59
2024/02/08 06:21:45;;;;;;;;;;;;;;;5.92;100.00;98844.67;109445;1251;67068;-59
2024/02/08 06:26:55;;;;;;;;;;;;;;;5.98;100.00;98843.13;109387;1253;61305;-59
2024/02/08 06:29:27;;;;;;;;;;;;;;;6.01;100.00;98847.09;109435;1251;59558;-59
2024/02/08 06:32:02;;;;;;;;;;;;;;;6.04;100.00;98851.33;109445;1251;77908;-60
2024/02/08 06:34:42;;;;;;;;;;;;;;;6.12;100.00;98851.10;109430;1251;69339;-59
2024/02/08 06:37:25;;;;;;;;;;;;;;;6.21;100.00;98852.23;109434;1251;72808;-59
2024/02/08 06:39:56;;;;;;;;;;;;;;;6.31;100.00;98852.95;109375;1250;60672;-59
2024/02/08 06:42:47;;;;;;;;;;;;;;;6.43;100.00;98861.93;109434;1250;58955;-60
2024/02/08 07:37:48;;;;;;;;;;;;;;;8.09;100.00;98875.98;109438;1253;59071;-59
2024/02/08 07:40:26;;;;;;;;;;;;;;;7.96;100.00;98877.50;109378;1252;74725;-59
2024/02/08 07:46:03;;;;;;;;;;;;;;;7.84;100.00;98881.85;109451;1253;71403;-59
2024/02/08 07:48:38;;;;;;;;;;;;;;;7.82;100.00;98884.01;109414;1252;59381;-66
2024/02/08 07:51:07;;;;;;;;;;;;;;;7.82;100.00;98885.68;109483;1253;59400;-59
2024/02/08 07:53:44;;;;;;;;;;;;;;;7.83;100.00;98891.11;109413;1252;73473;-59
2024/02/08 07:56:29;;;;;;;;;;;;;;;7.90;100.00;98899.90;109447;1250;65684;-59
2024/02/08 07:59:03;;;;;;;;;;;;;;;7.96;100.00;98911.08;109317;1252;72696;-59
2024/02/08 08:01:38;;;;;;;;;;;;;;;8.00;100.00;98921.41;109329;1252;59344;-61
2024/02/08 08:04:12;;;;;;;;;;;;;;;8.10;100.00;98913.77;109460;1252;60343;-60
2024/02/08 08:06:46;;;;;;;;;;;;;;;8.25;100.00;98923.54;109351;1252;73433;-59
2024/02/08 08:09:21;;;;;;;;;;;;;;;8.39;100.00;98918.13;109350;1253;66871;-59
2024/02/08 08:11:51;;;;;;;;;;;;;;;8.46;100.00;98921.48;109289;1253;72781;-66
2024/02/08 08:19:46;;;;;;;;;;;;;;;8.65;100.00;98900.06;109462;1252;73458;-61
2024/02/08 08:27:50;;;;;;;;;;;;;;;9.36;100.00;98917.33;109291;1252;60788;-59
2024/02/08 08:30:27;;;;;;;;;;;;;;;9.52;100.00;98923.48;109345;1252;60882;-59
2024/02/08 08:38:28;;;;;;;;;;;;;;;9.63;100.00;98928.34;109327;1252;73997;-58
2024/02/08 08:41:14;;;;;;;;;;;;;;;9.66;100.00;98929.48;109319;1256;61162;-59
2024/02/08 08:43:52;;;;;;;;;;;;;;;9.68;100.00;98930.59;109327;1253;60828;-59
2024/02/08 08:46:23;;;;;;;;;;;;;;;9.73;100.00;98938.21;109281;1253;74249;-59
2024/02/08 08:48:54;;;;;;;;;;;;;;;9.81;100.00;98942.77;109314;1253;68200;-59
2024/02/08 08:51:29;;;;;;;;;;;;;;;9.91;100.00;98946.05;109347;1253;75680;-60
2024/02/08 08:54:14;;;;;;;;;;;;;;;9.97;100.00;98943.14;109290;1253;58951;-61
2024/02/08 08:56:42;;;;;;;;;;;;;;;10.00;100.00;98942.64;109391;1253;60712;-59
2024/02/08 08:59:10;;;;;;;;;;;;;;;10.00;100.00;98940.84;109350;1252;76694;-59
2024/02/08 09:01:40;;;;;;;;;;;;;;;9.94;100.00;98939.99;109370;1253;70677;-60
2024/02/08 09:04:25;;;;;;;;;;;;;;;9.84;100.00;98941.11;109414;1253;75186;-59
2024/02/08 09:06:54;;;;;;;;;;;;;;;9.71;100.00;98943.79;109308;1256;58975;-60
2024/02/08 09:09:27;;;;;;;;;;;;;;;9.58;100.00;98949.42;109352;1253;62007;-60
2024/02/08 09:11:59;;;;;;;;;;;;;;;9.44;100.00;98949.13;109324;1253;77347;-60
2024/02/08 09:14:30;;;;;;;;;;;;;;;9.33;100.00;98948.90;109343;1254;68952;-59
2024/02/08 09:16:59;;;;;;;;;;;;;;;9.28;100.00;98948.05;109351;1252;74886;-60
2024/02/08 09:19:47;;;;;;;;;;;;;;;9.19;100.00;98954.23;109328;1253;60396;-58
2024/02/08 09:22:17;;;;;;;;;;;;;;;9.11;100.00;98960.66;109382;1253;60871;-59
2024/02/08 09:24:46;;;;;;;;;;;;;;;9.04;100.00;98950.73;109322;1253;75580;-59
2024/02/08 09:27:19;;;;;;;;;;;;;;;8.96;100.00;98958.30;109345;1252;66134;-64
2024/02/08 09:30:37;;;;;;;;;;;;;;;8.81;100.00;98964.34;109373;1252;72759;-59
2024/02/08 09:32:43;;;;;;;;;;;;;;;8.59;100.00;98967.73;109256;1253;59011;-67
2024/02/08 09:35:11;;;;;;;;;;;;;;;8.41;100.00;98959.18;109325;1252;61393;-59
2024/02/08 09:37:47;;;;;;;;;;;;;;;8.28;100.00;98957.29;109324;1252;77897;-59
2024/02/08 09:40:59;;;;;;;;;;;;;;;8.17;100.00;98958.56;109362;1253;67841;-60
2024/02/08 09:43:18;;;;;;;;;;;;;;;8.10;100.00;98963.39;109401;1252;72316;-58
2024/02/08 09:45:58;;;;;;;;;;;;;;;8.05;100.00;98977.52;109355;1252;60779;-59
2024/02/08 09:48:26;;;;;;;;;;;;;;;7.99;100.00;98978.74;109298;1253;60809;-58
2024/02/08 09:50:59;;;;;;;;;;;;;;;7.93;100.00;98988.27;109390;1252;74224;-58
2024/02/08 09:53:27;;;;;;;;;;;;;;;7.84;100.00;99001.46;109358;1252;68712;-58
2024/02/08 09:56:02;;;;;;;;;;;;;;;7.73;100.00;99012.09;109337;1252;73768;-59
2024/02/08 09:58:33;;;;;;;;;;;;;;;7.67;100.00;99017.85;109282;1252;61096;-59
2024/02/08 10:01:35;;;;;;;;;;;;;;;7.63;100.00;99019.77;109352;1253;60546;-59
2024/02/08 10:04:14;;;;;;;;;;;;;;;7.61;100.00;99017.30;109260;1255;75507;-59
2024/02/08 10:06:56;;;;;;;;;;;;;;;7.58;100.00;99016.71;109359;1251;70140;-57
2024/02/08 10:09:36;;;;;;;;;;;;;;;7.56;100.00;99023.55;109371;1253;73705;-63
2024/02/08 10:12:07;;;;;;;;;;;;;;;7.59;100.00;99022.00;109442;1253;61555;-58
2024/02/08 10:14:35;;;;;;;;;;;;;;;7.64;100.00;99021.23;109419;1253;62118;-59
2024/02/08 10:17:14;;;;;;;;;;;;;;;7.66;100.00;99014.50;109391;1254;74306;-58
2024/02/08 10:22:54;;;;;;;;;;;;;;;7.60;100.00;99023.81;109450;1252;74101;-68
2024/02/08 10:28:25;;;;;;;;;;;;;;;7.48;100.00;99017.46;109482;1253;63208;-59
2024/02/08 10:31:05;;;;;;;;;;;;;;;7.41;100.00;99017.83;109414;1252;78002;-58
2024/02/08 10:33:37;;;;;;;;;;;;;;;7.37;100.00;99026.52;109447;1250;67684;-58
2024/02/08 10:36:08;;;;;;;;;;;;;;;7.37;100.00;99031.17;109221;1253;74814;-58
2024/02/08 10:38:55;;;;;;;;;;;;;;;7.37;100.00;99029.18;109413;1251;62217;-58
2024/02/08 10:41:40;;;;;;;;;;;;;;;7.42;100.00;99023.63;109438;1250;60770;-57
2024/02/08 10:44:17;;;;;;;;;;;;;;;7.46;100.00;99019.42;109416;1251;76692;-58
2024/02/08 10:46:49;;;;;;;;;;;;;;;7.52;100.00;99020.20;109421;1251;69902;-59
2024/02/08 10:49:22;;;;;;;;;;;;;;;7.57;100.00;99022.59;109257;1253;73460;-58
2024/02/08 10:51:59;;;;;;;;;;;;;;;7.61;100.00;99025.05;109417;1255;60295;-57
2024/02/08 10:54:42;;;;;;;;;;;;;;;7.68;100.00;99028.99;109462;1251;62085;-59
2024/02/08 10:58:12;;;;;;;;;;;;;;;7.76;100.00;99031.10;109326;1251;75353;-66
2024/02/08 10:59:59;;;;;;;;;;;;;;;7.79;100.00;99034.45;109367;1257;67542;-58
2024/02/08 11:02:40;;;;;;;;;;;;;;;7.79;100.00;99030.27;109433;1250;74717;-58
2024/02/08 11:05:21;;;;;;;;;;;;;;;7.74;100.00;99030.22;109401;1250;60866;-58
2024/02/08 11:07:53;;;;;;;;;;;;;;;7.71;100.00;99033.27;109346;1250;61825;-58
2024/02/08 11:10:23;;;;;;;;;;;;;;;7.67;100.00;99036.17;109466;1250;77146;-59
2024/02/08 11:12:56;;;;;;;;;;;;;;;7.64;100.00;99037.39;109448;1251;69096;-58
2024/02/08 11:15:30;;;;;;;;;;;;;;;7.61;100.00;99044.52;109496;1250;74613;-58
2024/02/08 11:18:02;;;;;;;;;;;;;;;7.62;100.00;99046.97;109293;1254;60877;-59
2024/02/08 11:20:44;;;;;;;;;;;;;;;7.65;100.00;99043.15;109443;1251;61973;-59
2024/02/08 11:23:23;;;;;;;;;;;;;;;7.69;100.00;99042.36;109255;1251;201509;-60
2024/02/08 11:25:52;;;;;;;;;;;;;;;7.72;100.00;99044.92;109457;1251;68400;-66
2024/02/08 11:28:27;;;;;;;;;;;;;;;7.68;100.00;99044.08;109469;1251;73902;-58
2024/02/08 11:30:55;;;;;;;;;;;;;;;7.59;100.00;99047.40;109397;1251;62296;-58
2024/02/08 11:33:32;;;;;;;;;;;;;;;7.51;100.00;99054.77;109477;1251;60902;-61
2024/02/08 11:36:13;;;;;;;;;;;;;;;7.42;100.00;99055.21;109484;1251;76777;-58
2024/02/08 11:38:46;;;;;;;;;;;;;;;7.30;100.00;99061.77;109469;1251;66885;-59
2024/02/08 11:41:18;;;;;;;;;;;;;;;7.18;100.00;99058.55;109449;1257;74805;-58
2024/02/08 11:43:51;;;;;;;;;;;;;;;7.04;100.00;99065.11;109483;1251;61407;-59
2024/02/08 11:46:20;;;;;;;;;;;;;;;6.97;100.00;99063.78;109510;1256;58841;-58
2024/02/08 11:48:48;;;;;;;;;;;;;;;6.98;100.00;99059.09;109465;1252;75507;-58
2024/02/08 11:51:16;;;;;;;;;;;;;;;7.03;100.00;99060.01;109418;1256;70539;-59
2024/02/08 11:53:44;;;;;;;;;;;;;;;7.09;100.00;99052.31;109314;1251;75174;-58
2024/02/08 11:56:14;;;;;;;;;;;;;;;7.09;100.00;99047.42;109485;1251;62079;-57
2024/02/08 11:58:43;;;;;;;;;;;;;;;7.07;100.00;99048.83;109431;1251;60984;-58
2024/02/08 12:01:14;;;;;;;;;;;;;;;7.05;100.00;99049.13;109281;1251;74459;-64
2024/02/08 12:03:42;;;;;;;;;;;;;;;7.00;100.00;99054.69;109492;1251;69314;-57
2024/02/08 12:06:22;;;;;;;;;;;;;;;6.96;100.00;99057.69;109439;1254;74687;-57
2024/02/08 12:09:03;;;;;;;;;;;;;;;6.84;100.00;99060.30;109272;1251;62949;-65
2024/02/08 12:11:31;;;;;;;;;;;;;;;6.77;100.00;99064.60;109479;1251;60814;-58
2024/02/08 12:14:01;;;;;;;;;;;;;;;6.75;100.00;99070.08;109461;1251;77190;-58
2024/02/08 12:16:50;;;;;;;;;;;;;;;6.67;100.00;99071.73;109508;1251;67002;-59
2024/02/08 12:19:17;;;;;;;;;;;;;;;6.61;100.00;99075.74;109477;1251;74876;-59
2024/02/08 12:21:58;;;;;;;;;;;;;;;6.52;100.00;99078.18;109458;1251;61881;-60
2024/02/08 12:24:31;;;;;;;;;;;;;;;6.42;100.00;99085.10;109429;1251;60975;-58
2024/02/08 12:27:05;;;;;;;;;;;;;;;6.37;100.00;99086.11;109444;1251;77202;-58
2024/02/08 12:29:33;;;;;;;;;;;;;;;6.33;100.00;99085.61;109457;1251;67835;-60
2024/02/08 12:32:00;;;;;;;;;;;;;;;6.32;100.00;99088.27;109394;1251;75182;-58
2024/02/08 12:34:32;;;;;;;;;;;;;;;6.27;100.00;99091.04;109407;1251;63608;-59
2024/02/08 12:37:05;;;;;;;;;;;;;;;6.24;100.00;99086.42;109466;1251;60052;-59
2024/02/08 12:39:38;;;;;;;;;;;;;;;6.23;100.00;99091.91;109448;1251;76827;-58
2024/02/08 12:42:05;;;;;;;;;;;;;;;6.21;100.00;99097.27;109299;1251;70636;-59
2024/02/08 12:44:36;;;;;;;;;;;;;;;6.18;100.00;99093.41;109414;1251;76340;-59
2024/02/08 12:47:06;;;;;;;;;;;;;;;6.11;100.00;99094.33;109383;1251;62022;-59
2024/02/08 12:49:34;;;;;;;;;;;;;;;6.07;100.00;99096.83;109402;1251;61172;-60
2024/02/08 12:52:09;;;;;;;;;;;;;;;6.06;100.00;99107.40;109395;1251;76726;-62
2024/02/08 12:54:37;;;;;;;;;;;;;;;6.03;100.00;99105.11;109429;1251;68184;-59
2024/02/08 12:57:12;;;;;;;;;;;;;;;5.94;100.00;99109.45;109441;1251;74888;-59
2024/02/08 12:59:41;;;;;;;;;;;;;;;5.80;100.00;99116.59;109498;1251;59208;-59
2024/02/08 13:02:16;;;;;;;;;;;;;;;5.74;100.00;99122.67;109405;1256;60698;-59
2024/02/08 13:04:46;;;;;;;;;;;;;;;5.69;100.00;99127.92;109314;1251;76752;-59
2024/02/08 13:07:15;;;;;;;;;;;;;;;5.65;100.00;99132.54;109469;1251;70328;-59
2024/02/08 13:09:44;;;;;;;;;;;;;;;5.61;100.00;99139.96;109385;1251;74049;-59
2024/02/08 13:12:20;;;;;;;;;;;;;;;5.57;100.00;99146.46;109405;1251;61466;-59
2024/02/08 13:14:50;;;;;;;;;;;;;;;5.54;100.00;99148.26;109448;1251;63202;-59
2024/02/08 13:17:21;;;;;;;;;;;;;;;5.49;100.00;99153.64;109435;1251;75491;-60
2024/02/08 13:19:49;;;;;;;;;;;;;;;5.45;100.00;99155.20;109374;1255;68278;-60
2024/02/08 13:22:21;;;;;;;;;;;;;;;5.41;100.00;99162.30;109385;1251;74964;-60
2024/02/08 13:24:51;;;;;;;;;;;;;;;5.40;100.00;99163.96;109364;1251;61402;-60
2024/02/08 13:27:24;;;;;;;;;;;;;;;5.39;100.00;99169.67;109413;1251;61962;-60
2024/02/08 13:29:52;;;;;;;;;;;;;;;5.37;100.00;99170.04;109422;1255;75325;-61
2024/02/08 13:32:25;;;;;;;;;;;;;;;5.30;100.00;99168.71;109316;1251;69555;-61
2024/02/08 13:34:53;;;;;;;;;;;;;;;5.23;100.00;99169.55;109427;1251;76275;-61
2024/02/08 13:37:22;;;;;;;;;;;;;;;5.14;100.00;99173.17;109339;1251;63028;-62
2024/02/08 13:39:50;;;;;;;;;;;;;;;5.07;100.00;99174.30;109400;1251;61990;-61
2024/02/08 13:42:22;;;;;;;;;;;;;;;5.01;100.00;99176.92;109350;1251;76895;-62
2024/02/08 13:44:58;;;;;;;;;;;;;;;4.95;100.00;99180.05;109456;1251;69748;-64
2024/02/08 13:47:27;;;;;;;;;;;;;;;4.89;100.00;99180.11;109357;1251;76005;-62
2024/02/08 13:49:57;;;;;;;;;;;;;;;4.86;100.00;99180.86;109368;1251;61795;-63
2024/02/08 13:52:25;;;;;;;;;;;;;;;4.80;100.00;99190.09;109375;1251;60223;-63
2024/02/08 13:54:58;;;;;;;;;;;;;;;4.73;100.00;99187.63;109342;1251;75575;-64
2024/02/08 13:57:26;;;;;;;;;;;;;;;4.68;100.00;99192.13;109370;1254;67681;-64
2024/02/08 13:59:55;;;;;;;;;;;;;;;4.64;100.00;99193.02;109460;1253;73760;-65
2024/02/08 14:02:25;;;;;;;;;;;;;;;4.60;100.00;99196.05;109372;1251;60726;-66
2024/02/08 14:04:55;;;;;;;;;;;;;;;4.56;100.00;99197.75;109400;1251;60795;-66
2024/02/08 14:07:25;;;;;;;;;;;;;;;4.52;100.00;99203.06;109354;1251;74581;-66
2024/02/08 14:09:58;;;;;;;;;;;;;;;4.46;100.00;99206.06;109392;1254;70289;-67
2024/02/08 14:12:26;;;;;;;;;;;;;;;4.43;100.00;99212.81;109311;1251;74129;-67
2024/02/08 14:14:54;;;;;;;;;;;;;;;4.39;100.00;99215.42;109351;1254;61363;-68
2024/02/08 14:17:27;;;;;;;;;;;;;;;4.36;100.00;99217.89;109298;1251;62404;-68
2024/02/08 14:19:55;;;;;;;;;;;;;;;4.31;100.00;99218.98;109401;1251;74842;-67
2024/02/08 14:22:24;;;;;;;;;;;;;;;4.25;100.00;99221.52;109453;1251;68840;-68
2024/02/08 14:24:53;;;;;;;;;;;;;;;4.22;100.00;99219.55;109426;1251;73433;-67
2024/02/08 14:27:24;;;;;;;;;;;;;;;4.18;100.00;99225.58;109377;1253;59766;-67
2024/02/08 14:29:52;;;;;;;;;;;;;;;4.12;100.00;99232.46;109405;1254;60818;-67
2024/02/08 14:32:21;;;;;;;;;;;;;;;4.09;100.00;99234.86;109458;1251;75571;-67
2024/02/08 14:35:02;;;;;;;;;;;;;;;4.07;100.00;99236.86;109369;1253;68043;-67
2024/02/08 14:37:30;;;;;;;;;;;;;;;4.05;100.00;99237.09;109365;1253;75517;-67
2024/02/08 14:39:58;;;;;;;;;;;;;;;4.03;100.00;99239.52;109371;1253;62936;-67
2024/02/08 14:42:27;;;;;;;;;;;;;;;4.02;100.00;99242.25;109471;1252;62541;-67
2024/02/08 14:44:56;;;;;;;;;;;;;;;4.00;100.00;99241.94;109345;1252;75551;-67
2024/02/08 14:47:31;;;;;;;;;;;;;;;3.99;100.00;99244.91;109453;1253;67272;-66
2024/02/08 14:49:59;;;;;;;;;;;;;;;3.97;100.00;99248.77;109398;1253;73799;-66
2024/02/08 14:52:34;;;;;;;;;;;;;;;3.95;100.00;99248.34;109411;1254;63139;-67
2024/02/08 14:55:10;;;;;;;;;;;;;;;3.94;100.00;99253.23;109375;1252;62245;-67
2024/02/08 14:57:45;;;;;;;;;;;;;;;3.91;100.00;99257.11;109381;1253;74837;-66
2024/02/08 15:03:08;;;;;;;;;;;;;;;3.87;100.00;99267.73;109411;1253;76204;-66
2024/02/08 15:05:46;;;;;;;;;;;;;;;3.87;100.00;99271.14;109416;1252;61815;-66
2024/02/08 15:10:59;;;;;;;;;;;;;;;3.85;100.00;99284.38;109488;1252;76654;-65